• Join FlightAware (Why Join?)
  • Login
  • US Flag 
01:25AM EST


 

Airport Tracker/Info


-or-


 

Live Flight TrackerFlight Track Log ✈ EJA122 ✈ 07-Jun-2013 ✈ KTUS - KPGA

Flight Track Log - Related Links

Times and Time Zones

All times are in EDT time to prevent confusion due to time zone crossing. See the EJA122 flight status page for this flight to view local times or setup timezone preferences in your user account.

Time Position Orientation Groundspeed Altitude Reporting Facility
EDT Latitude Longitude Course Direction KTS MPH feet Rate Location/Type
02:50PM 32.7969 -111.0094 355° North  Level Estimated
02:51PM 32.8941 -111.0192 355° North  Level Estimated
02:52PM 32.9914 -111.0291 355° North  Level Estimated
02:53PM 33.0887 -111.0390 355° North  Level Estimated
02:54PM 33.1859 -111.0489 355° North  Level Estimated
02:55PM 33.2832 -111.0589 355° North  Level Estimated
02:56PM 33.3804 -111.0688 355° North  Level Estimated
02:57PM 33.4777 -111.0788 355° North  Level Estimated
02:58PM 33.5749 -111.0888 355° North  Level Estimated
02:59PM 33.6722 -111.0988 355° North  Level Estimated
03:00PM 33.7694 -111.1089 355° North  Level Estimated
03:01PM 33.8667 -111.1189 355° North  Level Estimated
03:02PM 33.9639 -111.1290 355° North  Level Estimated
03:03PM 34.0612 -111.1392 355° North  Level Estimated
03:04PM 34.1584 -111.1493 355° North  Level Estimated
03:05PM 34.2652 -111.1605 355° North  Level Estimated
03:06PM 34.3719 -111.1717 355° North  Level Estimated
03:07PM 34.4787 -111.1829 355° North  Level Estimated
03:08PM 34.5855 -111.1941 355° North  Level Estimated
03:09PM 34.6922 -111.2054 355° North  Level Estimated
03:10PM 34.7990 -111.2167 355° North  Level Estimated
03:11PM 34.9058 -111.2281 355° North  Level Estimated
03:12PM 35.0111 -111.2393 355° North  Level Estimated
03:13PM 35.1165 -111.2505 355° North  Level Estimated
03:14PM 35.2219 -111.2618 355° North  Level Estimated
03:14PM 35.0931 -111.6822 355° North 436 502 26,000  Level Denver Center
03:15PM 35.3272 -111.2731 355° North  Level Estimated
03:15PM 35.1753 -111.6697 North 433 498 26,000  Level Los Angeles Center
03:16PM 35.4326 -111.2844 355° North  Level Estimated
03:16PM 35.2944 -111.6553 North 434 499 26,000  Level Albuquerque Center
03:16PM 35.2944 -111.6553 North 433 498 26,000  Level Los Angeles Center
03:17PM 35.5379 -111.2958 355° North  Level Estimated
03:17PM 35.4139 -111.6400 North 433 498 26,000  Level Albuquerque Center
03:18PM 35.6429 -111.3071 355° North  Level Estimated
03:18PM 35.5311 -111.6267 North 431 496 26,000  Level Albuquerque Center
03:19PM 35.7486 -111.3186 355° North  Level Estimated
03:19PM 35.6497 -111.6103 North 432 497 26,000  Level Albuquerque Center
03:20PM 35.7903 -111.5933 North 428 493 26,000 -240 Level Albuquerque Center
03:21PM 35.9072 -111.5778 North 427 491 25,600 -480 Descending Albuquerque Center
03:21PM 35.9256 -111.5753 North 426 490 25,400 -1,560 Descending Los Angeles Center
03:22PM 36.0728 -111.5553 North 441 507 23,600 -1,620 Descending Los Angeles Center
03:23PM 36.1864 -111.5411 North 425 489 22,100 -1,440 Descending Denver Center
03:24PM 36.2969 -111.5289 North 407 468 20,700 -1,680 Descending Denver Center
03:25PM 36.4058 -111.5147 North 398 458 18,700 -2,400 Descending Denver Center
03:26PM 36.5122 -111.5014 North 389 448 15,800 -2,880 Descending Denver Center
03:27PM 36.6178 -111.4881 North 384 442 12,800 -3,000 Descending Denver Center